createdAt,value
2018-09-14T00:01:08.602Z,23.57
2018-09-14T00:03:37.026Z,24.32
2018-09-14T00:06:05.578Z,26.03
2018-09-14T00:08:34.016Z,26.75
2018-09-14T00:11:02.439Z,25.00
2018-09-14T00:13:30.977Z,25.55
2018-09-14T00:15:59.491Z,24.60
2018-09-14T00:18:27.919Z,24.55
2018-09-14T00:20:56.400Z,25.30
2018-09-14T00:23:24.898Z,25.68
2018-09-14T00:25:53.407Z,26.50
2018-09-14T00:28:21.904Z,25.65
2018-09-14T00:30:50.318Z,26.77
2018-09-14T00:33:18.831Z,26.15
2018-09-14T00:35:47.232Z,24.70
2018-09-14T00:38:15.715Z,26.07
2018-09-14T00:40:44.276Z,26.87
2018-09-14T00:43:13.061Z,28.52
2018-09-14T00:45:41.712Z,28.30
2018-09-14T00:48:10.400Z,30.00
2018-09-14T00:50:38.953Z,29.47
2018-09-14T00:53:07.488Z,28.50
2018-09-14T00:55:36.127Z,29.23
2018-09-14T00:58:04.579Z,29.65
2018-09-14T01:00:32.936Z,29.50
2018-09-14T01:03:01.347Z,30.35
2018-09-14T01:05:29.945Z,29.70
2018-09-14T01:07:58.312Z,27.17
2018-09-14T01:10:26.776Z,27.17
2018-09-14T01:12:55.249Z,26.75
2018-09-14T01:15:23.791Z,26.93
2018-09-14T01:17:52.209Z,26.55
2018-09-14T01:20:20.719Z,27.13
2018-09-14T01:22:49.081Z,26.37
2018-09-14T01:25:17.521Z,26.47
2018-09-14T01:27:45.957Z,25.57
2018-09-14T01:30:14.377Z,28.73
2018-09-14T01:32:42.915Z,27.10
2018-09-14T01:35:16.504Z,26.50
2018-09-14T01:37:44.770Z,26.50
2018-09-14T01:40:13.186Z,27.70
2018-09-14T01:42:42.658Z,27.17
2018-09-14T01:45:11.414Z,27.93
2018-09-14T01:47:39.768Z,28.40
2018-09-14T01:50:08.479Z,29.02
2018-09-14T01:52:36.926Z,27.47
2018-09-14T01:55:05.576Z,27.85
2018-09-14T01:57:33.967Z,28.33
2018-09-14T02:00:02.402Z,27.98
2018-09-14T02:02:30.825Z,26.70
2018-09-14T02:04:59.277Z,29.18
2018-09-14T02:07:27.648Z,28.33
2018-09-14T02:09:56.052Z,28.55
2018-09-14T02:12:24.423Z,28.87
2018-09-14T02:14:52.807Z,30.17
2018-09-14T02:17:21.491Z,27.80
2018-09-14T02:19:49.869Z,28.32
2018-09-14T02:22:18.257Z,27.23
2018-09-14T02:24:46.712Z,27.60
2018-09-14T02:27:15.121Z,28.67
2018-09-14T02:29:43.514Z,27.93
2018-09-14T02:32:11.957Z,28.30
2018-09-14T02:34:40.374Z,27.30
2018-09-14T02:37:08.803Z,26.73
2018-09-14T02:39:37.493Z,24.02
2018-09-14T02:42:05.924Z,26.67
2018-09-14T02:44:34.283Z,25.72
2018-09-14T02:47:02.773Z,28.13
2018-09-14T02:49:31.239Z,26.30
2018-09-14T02:51:59.620Z,26.27
2018-09-14T02:54:28.107Z,26.50
2018-09-14T02:56:56.501Z,25.13
2018-09-14T02:59:24.865Z,26.50
2018-09-14T03:01:53.815Z,25.17
2018-09-14T03:04:22.409Z,25.43
2018-09-14T03:06:50.856Z,25.40
2018-09-14T03:09:19.209Z,25.77
2018-09-14T03:11:47.765Z,25.43
2018-09-14T03:14:16.169Z,25.17
2018-09-14T03:16:44.640Z,23.80
2018-09-14T03:19:13.147Z,24.13
2018-09-14T03:21:42.091Z,22.25
2018-09-14T03:24:10.564Z,20.80
2018-09-14T03:26:38.985Z,22.55
2018-09-14T03:29:07.376Z,22.90
2018-09-14T03:31:35.929Z,24.45
2018-09-14T03:34:04.430Z,22.80
2018-09-14T03:36:32.915Z,128.62
2018-09-14T03:39:01.369Z,22.50
2018-09-14T03:41:29.739Z,22.75
2018-09-14T03:43:58.131Z,21.63
2018-09-14T03:46:26.440Z,21.73
2018-09-14T03:48:54.891Z,22.33
2018-09-14T03:51:23.303Z,21.93
2018-09-14T03:53:51.608Z,23.83
2018-09-14T03:56:19.957Z,23.17
2018-09-14T03:58:48.264Z,22.45
2018-09-14T04:01:16.727Z,22.37
2018-09-14T04:03:45.092Z,21.05
2018-09-14T04:06:13.507Z,23.30
2018-09-14T04:08:42.191Z,24.65
2018-09-14T04:11:10.658Z,21.60
2018-09-14T04:13:39.005Z,20.70
2018-09-14T04:16:07.326Z,21.27
2018-09-14T04:18:35.683Z,22.87
2018-09-14T04:21:04.433Z,22.17
2018-09-14T04:23:32.951Z,21.62
2018-09-14T04:26:02.300Z,21.87
2018-09-14T04:28:30.675Z,22.62
2018-09-14T04:30:59.082Z,21.10
2018-09-14T04:33:27.351Z,21.87
2018-09-14T04:35:55.882Z,22.13
2018-09-14T04:38:24.233Z,21.87
2018-09-14T04:40:52.596Z,22.00
2018-09-14T04:43:20.987Z,24.20
2018-09-14T04:45:49.539Z,22.53
2018-09-14T04:48:17.929Z,23.77
2018-09-14T04:50:46.264Z,24.53
2018-09-14T04:53:14.560Z,23.00
2018-09-14T04:55:42.924Z,24.60
2018-09-14T04:58:11.340Z,23.92
2018-09-14T05:00:39.677Z,24.07
2018-09-14T05:03:07.992Z,22.90
2018-09-14T05:05:36.386Z,23.23
2018-09-14T05:08:10.206Z,22.35
2018-09-14T05:10:38.631Z,21.77
2018-09-14T05:13:07.424Z,22.25
2018-09-14T05:15:36.125Z,20.60
2018-09-14T05:18:05.893Z,21.33
2018-09-14T05:20:34.768Z,21.83
2018-09-14T05:23:03.604Z,21.60
2018-09-14T05:25:32.344Z,22.15
2018-09-14T05:28:00.755Z,20.75
2018-09-14T05:30:29.103Z,20.77
2018-09-14T05:32:57.820Z,20.23
2018-09-14T05:35:26.122Z,21.57
2018-09-14T05:37:58.048Z,19.97
2018-09-14T05:40:26.849Z,20.13
2018-09-14T05:42:55.356Z,20.00
2018-09-14T05:45:23.631Z,20.00
2018-09-14T05:47:51.994Z,21.05
2018-09-14T05:50:20.362Z,19.57
2018-09-14T05:52:48.685Z,18.90
2018-09-14T05:55:17.250Z,17.90
2018-09-14T05:57:45.785Z,18.52
2018-09-14T06:00:14.156Z,19.53
2018-09-14T06:02:42.503Z,19.40
2018-09-14T06:05:10.924Z,17.33
2018-09-14T06:07:39.310Z,18.43
2018-09-14T06:10:07.719Z,17.77
2018-09-14T06:12:36.042Z,15.43
2018-09-14T06:15:04.480Z,17.13
2018-09-14T06:17:36.536Z,17.57
2018-09-14T06:20:04.977Z,17.67
2018-09-14T06:22:33.350Z,16.90
2018-09-14T06:25:01.846Z,17.73
2018-09-14T06:27:30.212Z,17.95
2018-09-14T06:29:58.570Z,16.83
2018-09-14T06:32:26.869Z,17.75
2018-09-14T06:34:55.216Z,17.00
2018-09-14T06:37:23.530Z,16.73
2018-09-14T06:39:52.881Z,18.10
2018-09-14T06:42:21.207Z,19.30
2018-09-14T06:44:49.575Z,18.47
2018-09-14T06:47:18.098Z,17.35
2018-09-14T06:49:46.447Z,17.40
2018-09-14T06:52:14.697Z,17.40
2018-09-14T06:54:42.992Z,17.50
2018-09-14T06:57:11.361Z,17.50
2018-09-14T06:59:39.697Z,16.85
2018-09-14T07:02:08.208Z,16.90
2018-09-14T07:04:36.533Z,16.67
2018-09-14T07:07:04.900Z,18.03
2018-09-14T07:09:33.233Z,16.67
2018-09-14T07:12:01.645Z,16.23
2018-09-14T07:14:29.928Z,17.60
2018-09-14T07:16:58.877Z,18.17
2018-09-14T07:19:27.188Z,18.43
2018-09-14T07:21:55.622Z,17.57
2018-09-14T07:24:24.377Z,17.60
2018-09-14T07:26:52.719Z,19.33
2018-09-14T07:29:21.078Z,17.93
2018-09-14T07:31:49.539Z,17.23
2018-09-14T07:34:17.663Z,17.60
2018-09-14T07:36:45.995Z,18.03
2018-09-14T07:39:14.314Z,16.90
2018-09-14T07:41:42.601Z,18.00
2018-09-14T07:44:11.085Z,17.03
2018-09-14T07:46:39.507Z,15.07
2018-09-14T07:49:07.916Z,16.07
2018-09-14T07:51:36.246Z,17.13
2018-09-14T07:54:04.639Z,16.73
2018-09-14T07:56:33.082Z,16.03
2018-09-14T07:59:01.461Z,16.00
2018-09-14T08:01:29.817Z,16.23
2018-09-14T08:03:58.217Z,15.05
2018-09-14T08:06:26.629Z,14.03
2018-09-14T08:08:54.945Z,14.70
2018-09-14T08:11:23.553Z,14.77
2018-09-14T08:13:51.956Z,13.78
2018-09-14T08:16:20.299Z,15.13
2018-09-14T08:18:48.696Z,14.23
2018-09-14T08:21:17.059Z,15.10
2018-09-14T08:23:45.301Z,14.70
2018-09-14T08:26:13.760Z,15.03
2018-09-14T08:28:42.274Z,16.33
2018-09-14T08:31:10.717Z,14.50
2018-09-14T08:33:39.019Z,15.47
2018-09-14T08:36:07.338Z,14.90
2018-09-14T08:38:35.622Z,15.17
2018-09-14T08:41:03.950Z,15.03
2018-09-14T08:43:32.260Z,14.75
2018-09-14T08:46:00.542Z,14.83
2018-09-14T08:48:28.997Z,14.43
2018-09-14T08:50:57.373Z,15.70
2018-09-14T08:53:25.816Z,14.43
2018-09-14T08:55:54.061Z,13.53
2018-09-14T08:58:22.480Z,14.10
2018-09-14T09:00:50.895Z,13.85
2018-09-14T09:03:19.385Z,13.97
2018-09-14T09:05:47.782Z,14.80
2018-09-14T09:08:19.579Z,13.20
2018-09-14T09:10:47.920Z,13.90
2018-09-14T09:13:16.317Z,13.20
2018-09-14T09:15:44.870Z,14.03
2018-09-14T09:18:13.220Z,11.97
2018-09-14T09:20:41.525Z,14.00
2018-09-14T09:23:09.976Z,13.23
2018-09-14T09:25:38.457Z,12.93
2018-09-14T09:28:06.879Z,11.90
2018-09-14T09:30:35.228Z,12.67
2018-09-14T09:33:03.830Z,12.63
2018-09-14T09:35:32.296Z,12.23
2018-09-14T09:38:00.590Z,12.13
2018-09-14T09:40:29.895Z,11.87
2018-09-14T09:42:58.392Z,11.63
2018-09-14T09:45:29.164Z,11.93
2018-09-14T09:47:57.570Z,10.63
2018-09-14T09:50:25.852Z,10.28
2018-09-14T09:52:54.376Z,10.93
2018-09-14T09:55:22.861Z,11.77
2018-09-14T09:57:51.156Z,10.97
2018-09-14T10:00:24.980Z,11.70
2018-09-14T10:03:02.444Z,11.67
2018-09-14T10:05:36.106Z,10.37
2018-09-14T10:08:04.632Z,10.40
2018-09-14T10:10:33.075Z,10.03
2018-09-14T10:13:01.769Z,9.20
2018-09-14T10:15:30.323Z,8.40
2018-09-14T10:18:00.158Z,8.88
2018-09-14T10:20:31.385Z,9.33
2018-09-14T10:22:59.744Z,9.30
2018-09-14T10:25:28.482Z,8.40
2018-09-14T10:27:59.780Z,9.37
2018-09-14T10:30:28.428Z,8.10
2018-09-14T10:35:46.599Z,7.87
2018-09-14T10:38:15.606Z,7.80
2018-09-14T10:40:44.189Z,7.23
2018-09-14T10:43:13.190Z,6.28
2018-09-14T10:45:43.158Z,7.35
2018-09-14T10:48:12.333Z,5.50
2018-09-14T10:50:42.068Z,6.57
2018-09-14T10:53:11.123Z,6.53
2018-09-14T10:55:39.490Z,6.17
2018-09-14T10:58:07.770Z,6.07
2018-09-14T11:00:36.021Z,6.28
2018-09-14T11:03:04.318Z,5.67
2018-09-14T11:05:32.828Z,5.30
2018-09-14T11:08:01.931Z,4.80
2018-09-14T11:10:30.513Z,4.17
2018-09-14T11:12:58.888Z,4.57
2018-09-14T11:15:27.097Z,4.03
2018-09-14T11:17:55.332Z,4.77
2018-09-14T11:20:23.727Z,3.80
2018-09-14T11:22:51.995Z,3.60
2018-09-14T11:25:20.318Z,4.20
2018-09-14T11:27:48.669Z,4.20
2018-09-14T11:30:17.612Z,3.83
2018-09-14T11:32:46.765Z,3.60
2018-09-14T11:35:15.868Z,4.10
2018-09-14T11:37:44.362Z,3.87
2018-09-14T11:40:13.522Z,3.87
2018-09-14T11:42:43.231Z,4.80
2018-09-14T11:45:12.585Z,4.50
2018-09-14T11:47:41.993Z,5.13
2018-09-14T11:50:10.958Z,4.23
2018-09-14T11:52:39.205Z,4.37
2018-09-14T11:55:07.429Z,4.17
2018-09-14T12:03:21.886Z,6.97
2018-09-14T12:05:50.145Z,5.28
2018-09-14T12:08:18.351Z,3.73
2018-09-14T12:10:46.654Z,3.77
2018-09-14T12:13:15.254Z,3.80
2018-09-14T12:15:43.840Z,4.45
2018-09-14T12:18:13.320Z,3.50
2018-09-14T12:20:42.391Z,3.40
2018-09-14T12:23:11.444Z,3.30
2018-09-14T12:25:40.430Z,3.87
2018-09-14T12:28:10.308Z,3.80
2018-09-14T12:30:38.512Z,3.70
2018-09-14T12:33:08.151Z,3.60
2018-09-14T12:35:36.417Z,3.63
2018-09-14T12:38:04.728Z,3.70
2018-09-14T12:40:33.036Z,3.70
2018-09-14T12:43:01.482Z,3.70
2018-09-14T12:45:30.118Z,3.65
2018-09-14T12:47:58.409Z,3.47
2018-09-14T12:50:26.666Z,3.40
2018-09-14T12:52:54.955Z,3.40
2018-09-14T12:55:23.222Z,3.37
2018-09-14T12:57:51.582Z,3.55
2018-09-14T13:00:19.841Z,3.10
2018-09-14T13:02:48.081Z,3.40
2018-09-14T13:13:54.550Z,3.43
2018-09-14T13:16:22.824Z,3.23
2018-09-14T13:18:51.041Z,3.70
2018-09-14T13:24:13.176Z,3.70
2018-09-14T13:26:42.048Z,3.50
2018-09-14T13:29:11.398Z,3.23
2018-09-14T13:31:41.057Z,3.97
2018-09-14T13:34:09.253Z,3.27
2018-09-14T13:36:37.570Z,3.63
2018-09-14T13:39:08.978Z,3.25
2018-09-14T13:41:37.365Z,3.67
2018-09-14T13:44:05.879Z,3.70
2018-09-14T13:46:34.365Z,3.30
2018-09-14T13:49:02.930Z,3.30
2018-09-14T13:51:31.315Z,3.00
2018-09-14T13:53:59.640Z,3.15
2018-09-14T13:56:28.079Z,3.23
2018-09-14T13:58:56.502Z,5.17
2018-09-14T14:01:24.897Z,8.03
2018-09-14T14:03:53.236Z,3.50
2018-09-14T14:06:21.885Z,3.77
2018-09-14T14:08:50.154Z,3.37
2018-09-14T14:11:18.434Z,3.50
2018-09-14T14:13:47.038Z,4.00
2018-09-14T14:16:15.365Z,3.30
2018-09-14T14:18:43.650Z,3.80
2018-09-14T14:21:12.045Z,3.20
2018-09-14T14:23:40.310Z,3.40
2018-09-14T14:26:08.808Z,2.70
2018-09-14T14:28:37.146Z,2.83
2018-09-14T14:31:05.818Z,3.20
2018-09-14T14:33:34.084Z,3.02
2018-09-14T14:36:02.377Z,3.57
2018-09-14T14:38:30.699Z,3.15
2018-09-14T14:40:58.996Z,2.90
2018-09-14T14:43:27.336Z,3.10
2018-09-14T14:45:55.835Z,3.45
2018-09-14T14:48:24.115Z,3.20
2018-09-14T14:50:52.581Z,3.13
2018-09-14T14:53:21.058Z,3.10
2018-09-14T14:55:49.508Z,2.90
2018-09-14T14:58:17.795Z,3.00
2018-09-14T15:00:46.381Z,3.30
2018-09-14T15:03:14.797Z,3.30
2018-09-14T15:05:43.272Z,3.30
2018-09-14T15:08:11.656Z,3.27
2018-09-14T15:10:40.009Z,3.52
2018-09-14T15:13:08.313Z,3.40
2018-09-14T15:15:36.606Z,3.30
2018-09-14T15:18:05.333Z,3.13
2018-09-14T15:20:33.743Z,3.60
2018-09-14T15:23:02.109Z,3.30
2018-09-14T15:25:30.785Z,3.20
2018-09-14T15:27:59.209Z,3.30
2018-09-14T15:30:27.683Z,2.97
2018-09-14T15:32:56.388Z,3.33
2018-09-14T15:35:26.003Z,3.12
2018-09-14T15:37:56.442Z,3.60
2018-09-14T15:40:25.210Z,2.93
2018-09-14T15:42:54.624Z,3.58
2018-09-14T15:45:22.976Z,3.20
2018-09-14T15:47:51.274Z,3.03
2018-09-14T15:50:19.807Z,3.62
2018-09-14T15:52:48.262Z,3.50
2018-09-14T15:55:16.591Z,3.50
2018-09-14T15:57:44.989Z,3.10
2018-09-14T16:00:13.537Z,3.20
2018-09-14T16:02:42.065Z,3.30
2018-09-14T16:05:10.722Z,3.40
2018-09-14T16:07:39.229Z,3.53
2018-09-14T16:10:07.647Z,3.63
2018-09-14T16:12:36.092Z,3.50
2018-09-14T16:15:04.437Z,3.93
2018-09-14T16:17:32.745Z,4.30
2018-09-14T16:20:01.156Z,4.42
2018-09-14T16:22:29.440Z,4.27
2018-09-14T16:24:57.735Z,4.50
2018-09-14T16:27:26.156Z,4.33
2018-09-14T16:29:54.581Z,5.03
2018-09-14T16:32:22.862Z,4.37
2018-09-14T16:34:51.375Z,5.10
2018-09-14T16:37:19.729Z,4.65
2018-09-14T16:39:48.240Z,4.80
2018-09-14T16:42:17.558Z,4.78
2018-09-14T16:44:45.966Z,4.83
2018-09-14T16:47:14.399Z,4.60
2018-09-14T16:49:42.792Z,4.17
2018-09-14T16:52:11.312Z,4.37
2018-09-14T16:54:39.610Z,4.27
2018-09-14T16:57:07.891Z,4.10
2018-09-14T16:59:36.344Z,4.25
2018-09-14T17:02:06.003Z,4.13
2018-09-14T17:04:34.650Z,4.37
2018-09-14T17:07:03.174Z,4.10
2018-09-14T17:09:31.494Z,4.10
2018-09-14T17:12:00.861Z,5.20
2018-09-14T17:14:29.323Z,5.10
2018-09-14T17:16:57.876Z,5.17
2018-09-14T17:19:26.624Z,5.33
2018-09-14T17:21:56.061Z,5.10
2018-09-14T17:24:24.601Z,5.42
2018-09-14T17:26:53.057Z,4.80
2018-09-14T17:29:21.536Z,6.35
2018-09-14T17:31:50.126Z,5.30
2018-09-14T17:34:19.933Z,5.00
2018-09-14T17:36:49.188Z,4.50
2018-09-14T17:39:17.879Z,4.70
2018-09-14T17:41:46.436Z,4.92
2018-09-14T17:44:14.916Z,4.83
2018-09-14T17:46:43.484Z,5.37
2018-09-14T17:49:12.044Z,4.60
2018-09-14T17:51:40.489Z,5.07
2018-09-14T17:54:09.102Z,5.33
2018-09-14T17:56:37.513Z,4.93
2018-09-14T17:59:06.072Z,4.67
2018-09-14T18:01:34.474Z,4.97
2018-09-14T18:04:02.941Z,4.60
2018-09-14T18:06:31.385Z,4.80
2018-09-14T18:08:59.801Z,4.60
2018-09-14T18:11:28.264Z,4.50
2018-09-14T18:13:56.734Z,4.45
2018-09-14T18:16:25.285Z,4.63
2018-09-14T18:18:53.731Z,4.70
2018-09-14T18:21:22.206Z,4.60
2018-09-14T18:23:50.698Z,4.80
2018-09-14T18:26:18.981Z,4.60
2018-09-14T18:28:47.445Z,4.70
2018-09-14T18:31:15.783Z,4.47
2018-09-14T18:33:44.208Z,5.00
2018-09-14T18:36:12.777Z,4.33
2018-09-14T18:38:41.316Z,5.30
2018-09-14T18:41:09.965Z,5.40
2018-09-14T18:43:38.362Z,5.37
2018-09-14T18:46:06.689Z,5.20
2018-09-14T18:48:35.112Z,4.90
2018-09-14T18:51:03.590Z,5.03
2018-09-14T18:53:31.999Z,4.75
2018-09-14T18:56:00.417Z,4.20
2018-09-14T18:58:28.807Z,4.65
2018-09-14T19:00:57.255Z,4.90
2018-09-14T19:03:25.628Z,4.80
2018-09-14T19:05:53.951Z,4.53
2018-09-14T19:08:22.415Z,4.80
2018-09-14T19:10:50.757Z,4.70
2018-09-14T19:13:19.081Z,4.77
2018-09-14T19:15:47.442Z,5.10
2018-09-14T19:18:15.806Z,4.90
2018-09-14T19:20:44.202Z,4.42
2018-09-14T19:23:12.607Z,4.77
2018-09-14T19:25:41.067Z,4.97
2018-09-14T19:28:09.548Z,4.87
2018-09-14T19:30:38.011Z,4.83
2018-09-14T19:33:06.316Z,5.13
2018-09-14T19:35:34.876Z,5.20
2018-09-14T19:38:03.238Z,6.47
2018-09-14T19:40:31.739Z,5.30
2018-09-14T19:43:00.208Z,5.37
2018-09-14T19:45:28.700Z,5.17
2018-09-14T19:47:56.968Z,5.20
2018-09-14T19:50:25.283Z,5.07
2018-09-14T19:52:53.754Z,5.60
2018-09-14T19:55:22.122Z,5.53
2018-09-14T19:57:50.439Z,5.53
2018-09-14T20:00:18.978Z,5.33
2018-09-14T20:02:47.386Z,5.50
2018-09-14T20:05:15.904Z,5.13
2018-09-14T20:07:44.301Z,5.70
2018-09-14T20:10:12.645Z,5.70
2018-09-14T20:12:41.089Z,4.92
2018-09-14T20:15:09.443Z,5.70
2018-09-14T20:17:38.222Z,5.72
2018-09-14T20:20:06.613Z,5.70
2018-09-14T20:22:35.156Z,5.20
2018-09-14T20:25:03.595Z,5.80
2018-09-14T20:27:31.911Z,5.85
2018-09-14T20:30:00.321Z,5.93
2018-09-14T20:32:28.658Z,6.00
2018-09-14T20:34:56.980Z,6.10
2018-09-14T20:37:25.297Z,6.40
2018-09-14T20:39:53.532Z,5.40
2018-09-14T20:42:21.823Z,6.50
2018-09-14T20:44:50.121Z,5.90
2018-09-14T20:47:18.358Z,6.53
2018-09-14T20:49:46.873Z,6.00
2018-09-14T20:52:15.312Z,5.72
2018-09-14T20:54:43.614Z,6.60
2018-09-14T20:57:11.993Z,6.22
2018-09-14T20:59:40.407Z,6.43
2018-09-14T21:02:08.749Z,6.80
2018-09-14T21:04:37.192Z,6.70
2018-09-14T21:07:05.498Z,6.73
2018-09-14T21:09:33.937Z,6.90
2018-09-14T21:12:02.266Z,8.23
2018-09-14T21:14:30.719Z,7.80
2018-09-14T21:16:59.205Z,8.07
2018-09-14T21:19:27.715Z,8.53
2018-09-14T21:21:56.713Z,8.15
2018-09-14T21:24:25.193Z,8.65
2018-09-14T21:26:53.824Z,7.97
2018-09-14T21:29:22.255Z,7.20
2018-09-14T21:31:50.816Z,7.03
2018-09-14T21:34:19.390Z,7.57
2018-09-14T21:36:47.872Z,7.78
2018-09-14T21:39:16.483Z,7.80
2018-09-14T21:41:45.076Z,6.80
2018-09-14T21:44:13.630Z,6.65
2018-09-14T21:46:42.115Z,7.40
2018-09-14T21:49:10.741Z,6.75
2018-09-14T21:51:39.502Z,7.90
2018-09-14T21:54:08.064Z,7.13
2018-09-14T21:56:36.338Z,7.35
2018-09-14T21:59:04.758Z,6.27
2018-09-14T22:01:33.587Z,6.78
2018-09-14T22:04:01.976Z,6.37
2018-09-14T22:06:30.452Z,8.08
2018-09-14T22:09:31.849Z,7.37
2018-09-14T22:12:00.377Z,7.23
2018-09-14T22:14:28.767Z,6.80
2018-09-14T22:16:57.149Z,7.70
2018-09-14T22:19:29.084Z,7.75
2018-09-14T22:21:57.551Z,7.23
2018-09-14T22:24:26.069Z,6.72
2018-09-14T22:26:54.565Z,6.37
2018-09-14T22:29:23.037Z,6.62
2018-09-14T22:31:51.399Z,6.20
2018-09-14T22:34:19.859Z,7.40
2018-09-14T22:36:48.411Z,6.90
2018-09-14T22:39:16.804Z,7.08
2018-09-14T22:41:45.352Z,6.67
2018-09-14T22:44:13.697Z,6.80
2018-09-14T22:46:42.018Z,7.63
2018-09-14T22:49:10.515Z,7.92
2018-09-14T22:51:38.918Z,7.53
2018-09-14T22:54:07.354Z,7.47
2018-09-14T22:56:35.705Z,6.93
2018-09-14T22:59:04.083Z,6.63
2018-09-14T23:01:32.518Z,6.80
2018-09-14T23:04:00.989Z,6.75
2018-09-14T23:06:29.337Z,6.57
2018-09-14T23:08:57.809Z,6.85
2018-09-14T23:11:26.148Z,6.53
2018-09-14T23:13:54.571Z,6.60
2018-09-14T23:16:23.041Z,7.00
2018-09-14T23:18:51.458Z,6.53
2018-09-14T23:21:19.932Z,7.27
2018-09-14T23:23:48.346Z,7.15
2018-09-14T23:26:21.111Z,7.13
2018-09-14T23:28:49.509Z,6.53
2018-09-14T23:31:17.866Z,7.03
2018-09-14T23:33:46.258Z,6.13
2018-09-14T23:36:15.622Z,7.60
2018-09-14T23:38:43.941Z,7.47
2018-09-14T23:41:12.515Z,7.95
2018-09-14T23:43:40.878Z,7.63
2018-09-14T23:46:09.324Z,8.00
2018-09-14T23:48:37.582Z,9.10
2018-09-14T23:51:05.936Z,8.83
2018-09-14T23:53:34.308Z,8.55
2018-09-14T23:56:02.798Z,8.83
2018-09-14T23:58:31.132Z,9.70
